Hillister, Texas
Current Conditions -  °F | °C
As of 5:55 PM on Saturday 22 Nov 2014 (Local Time) from KJAS Reporting Station
Drizzle Drizzle  
Wind Chill: 66°   Ceiling: 2100
Heat Index: 66°   Visibility: 10mi
Dew Point: 61°   Wind: 6mph
Humidity: 84%   Direction: 90°E
Pressure: 29.89"   Gusts: NA
Location:  30.67°N, 94.38°W
Report Text: KJAS 222355Z AUTO 09005KT 10SM DZ BKN021 OVC027 19/16 A2989 RMK AO2 T01900162
Loading
Personal Weather Stations






























Interactive Weather Map New forecast layout! Learn more

10-Day Weather Forecast

Advertisements
Track Severe Weather on mobile